Time;durP1;ratioP1;P1;durP2;ratioP2;P2;SDS_P1;SDS_P2;PMS_P1;PMS_P2;Temp;Humidity;BMP_temperature;BMP_pressure;BME280_temperature;BME280_humidity;BME280_pressure;Samples;Min_cycle;Max_cycle;Signal;HPM_P1;HPM_P2
2023/12/30 00:02:12;;;;;;;5.50;1.70;;;;;;;;;;5089548;28;20180;-55
2023/12/30 00:04:38;;;;;;;4.63;1.37;;;;;;;;;;5087718;28;20284;-55
2023/12/30 00:07:04;;;;;;;6.53;1.53;;;;;;;;;;5089335;28;20211;-54
2023/12/30 00:09:30;;;;;;;7.83;1.40;;;;;;;;;;5089108;28;20168;-55
2023/12/30 00:11:56;;;;;;;4.37;1.70;;;;;;;;;;5089712;28;20167;-53
2023/12/30 00:14:22;;;;;;;3.50;1.17;;;;;;;;;;5090369;28;20217;-51
2023/12/30 00:16:49;;;;;;;9.00;1.20;;;;;;;;;;5095712;28;20301;-53
2023/12/30 00:19:16;;;;;;;6.77;1.60;;;;;;;;;;5095656;28;20184;-53
2023/12/30 00:21:42;;;;;;;4.60;1.77;;;;;;;;;;5095291;28;20172;-56
2023/12/30 00:24:09;;;;;;;5.23;1.67;;;;;;;;;;5093506;28;20172;-54
2023/12/30 00:26:35;;;;;;;4.37;1.30;;;;;;;;;;5093691;28;20208;-55
2023/12/30 00:29:02;;;;;;;4.27;1.50;;;;;;;;;;5095771;28;20539;-53
2023/12/30 00:31:29;;;;;;;6.03;1.67;;;;;;;;;;5096162;28;20182;-54
2023/12/30 00:33:59;;;;;;;7.53;1.43;;;;;;;;;;5096207;28;20168;-56
2023/12/30 00:36:26;;;;;;;7.27;1.50;;;;;;;;;;5096022;28;20264;-54
2023/12/30 00:38:55;;;;;;;5.47;2.00;;;;;;;;;;5095633;28;20172;-54
2023/12/30 00:41:25;;;;;;;5.83;1.80;;;;;;;;;;5095877;28;20172;-53
2023/12/30 00:43:51;;;;;;;3.23;1.23;;;;;;;;;;5095068;28;20172;-55
2023/12/30 00:46:21;;;;;;;2.53;1.27;;;;;;;;;;5095298;28;20179;-54
2023/12/30 00:48:47;;;;;;;7.47;1.43;;;;;;;;;;5095848;28;20722;-54
2023/12/30 00:51:14;;;;;;;5.17;1.40;;;;;;;;;;5095784;28;20464;-53
2023/12/30 00:53:40;;;;;;;4.73;1.20;;;;;;;;;;5094080;28;20199;-52
2023/12/30 00:56:06;;;;;;;3.03;1.50;;;;;;;;;;5093432;28;20219;-51
2023/12/30 00:58:32;;;;;;;2.13;1.13;;;;;;;;;;5094120;28;20241;-54
2023/12/30 01:00:58;;;;;;;5.20;2.10;;;;;;;;;;5094727;28;20180;-56
2023/12/30 01:03:24;;;;;;;3.53;1.73;;;;;;;;;;5094578;28;20210;-54
2023/12/30 01:05:52;;;;;;;9.70;2.17;;;;;;;;;;5094516;28;20168;-54
2023/12/30 01:08:19;;;;;;;5.10;1.93;;;;;;;;;;5095613;28;20203;-56
2023/12/30 01:10:44;;;;;;;4.47;1.67;;;;;;;;;;5095291;28;20212;-50
2023/12/30 01:13:10;;;;;;;6.17;2.20;;;;;;;;;;5095006;28;20207;-53
2023/12/30 01:15:37;;;;;;;4.07;1.87;;;;;;;;;;5093684;28;20556;-51
2023/12/30 01:18:03;;;;;;;6.03;1.73;;;;;;;;;;5095377;28;20171;-51
2023/12/30 01:20:30;;;;;;;4.30;1.60;;;;;;;;;;5094767;28;20188;-50
2023/12/30 01:22:56;;;;;;;3.20;1.57;;;;;;;;;;5093349;28;20599;-55
2023/12/30 01:25:22;;;;;;;4.80;1.40;;;;;;;;;;5094165;28;20186;-49
2023/12/30 01:27:48;;;;;;;3.20;1.50;;;;;;;;;;5094053;28;20208;-53
2023/12/30 01:30:14;;;;;;;6.17;1.43;;;;;;;;;;5094061;28;20512;-53
2023/12/30 01:32:40;;;;;;;8.00;1.80;;;;;;;;;;5095092;28;20580;-51
2023/12/30 01:35:07;;;;;;;3.43;1.27;;;;;;;;;;5093691;28;20558;-51
2023/12/30 01:37:33;;;;;;;3.27;1.37;;;;;;;;;;5094175;28;20168;-53
2023/12/30 01:39:59;;;;;;;3.47;1.10;;;;;;;;;;5094349;28;20202;-53
2023/12/30 01:42:26;;;;;;;1.13;0.90;;;;;;;;;;5095696;28;20284;-54
2023/12/30 01:44:52;;;;;;;4.63;1.20;;;;;;;;;;5095269;28;20168;-52
2023/12/30 01:47:18;;;;;;;5.00;1.70;;;;;;;;;;5094553;28;20272;-54
2023/12/30 01:49:44;;;;;;;2.53;1.60;;;;;;;;;;5094227;28;20179;-53
2023/12/30 01:52:11;;;;;;;3.40;0.97;;;;;;;;;;5093702;28;20199;-55
2023/12/30 01:54:37;;;;;;;4.23;1.03;;;;;;;;;;5093278;28;20487;-52
2023/12/30 01:57:03;;;;;;;2.53;0.97;;;;;;;;;;5094340;28;20270;-55
2023/12/30 01:59:30;;;;;;;1.50;0.93;;;;;;;;;;5094257;28;20233;-54
2023/12/30 02:01:56;;;;;;;1.50;1.03;;;;;;;;;;5093111;28;20599;-55
2023/12/30 02:04:24;;;;;;;1.97;0.70;;;;;;;;;;5094503;28;20209;-54
2023/12/30 02:06:51;;;;;;;2.40;0.50;;;;;;;;;;5092229;28;20210;-56
2023/12/30 02:09:17;;;;;;;1.20;0.73;;;;;;;;;;5089082;28;20186;-53
2023/12/30 02:11:43;;;;;;;2.90;0.93;;;;;;;;;;5090336;28;20202;-56
2023/12/30 02:14:25;;;;;;;4.47;0.90;;;;;;;;;;5090755;28;20175;-54
2023/12/30 02:16:51;;;;;;;2.43;0.67;;;;;;;;;;5096031;28;20172;-54
2023/12/30 02:19:18;;;;;;;1.73;0.70;;;;;;;;;;5096415;28;20636;-52
2023/12/30 02:21:45;;;;;;;4.47;1.00;;;;;;;;;;5095704;28;20176;-51
2023/12/30 02:24:11;;;;;;;4.17;1.00;;;;;;;;;;5095444;28;20157;-54
2023/12/30 02:26:37;;;;;;;2.87;0.90;;;;;;;;;;5093254;28;20204;-55
2023/12/30 02:29:03;;;;;;;4.83;1.77;;;;;;;;;;5093566;28;20237;-54
2023/12/30 02:31:29;;;;;;;3.17;0.77;;;;;;;;;;5092540;28;20172;-56
2023/12/30 02:33:55;;;;;;;2.53;1.47;;;;;;;;;;5093290;28;20180;-52
2023/12/30 02:36:21;;;;;;;2.90;1.00;;;;;;;;;;5092405;28;20187;-54
2023/12/30 02:38:48;;;;;;;3.00;1.00;;;;;;;;;;5093242;28;20179;-55
2023/12/30 02:41:14;;;;;;;1.57;0.60;;;;;;;;;;5093635;28;20266;-54
2023/12/30 02:43:45;;;;;;;4.47;0.60;;;;;;;;;;5092956;28;20490;-52
2023/12/30 02:46:11;;;;;;;4.43;1.07;;;;;;;;;;5094153;28;20242;-54
2023/12/30 02:48:37;;;;;;;3.27;0.90;;;;;;;;;;5097781;28;20577;-55
2023/12/30 02:51:03;;;;;;;1.67;0.70;;;;;;;;;;5098383;28;20183;-56
2023/12/30 02:53:29;;;;;;;3.43;1.13;;;;;;;;;;5098198;28;20625;-54
2023/12/30 02:55:55;;;;;;;4.70;1.17;;;;;;;;;;5096824;28;20216;-51
2023/12/30 02:58:35;;;;;;;5.33;1.00;;;;;;;;;;5093004;27;21032;-55
2023/12/30 03:01:01;;;;;;;3.73;1.20;;;;;;;;;;5092759;28;20736;-54
2023/12/30 03:03:27;;;;;;;2.87;1.20;;;;;;;;;;5091697;28;20164;-51
2023/12/30 03:05:53;;;;;;;3.27;0.83;;;;;;;;;;5091153;28;20171;-53
2023/12/30 03:08:19;;;;;;;5.30;1.17;;;;;;;;;;5091855;28;20636;-53
2023/12/30 03:10:45;;;;;;;4.80;1.30;;;;;;;;;;5091517;28;20182;-53
2023/12/30 03:13:11;;;;;;;8.00;1.07;;;;;;;;;;5093036;28;20206;-51
2023/12/30 03:15:37;;;;;;;3.30;1.20;;;;;;;;;;5092308;28;20176;-55
2023/12/30 03:18:03;;;;;;;5.13;0.97;;;;;;;;;;5092238;28;20298;-53
2023/12/30 03:20:29;;;;;;;5.87;0.90;;;;;;;;;;5091042;28;20173;-55
2023/12/30 03:22:56;;;;;;;4.97;0.90;;;;;;;;;;5092201;28;20232;-55
2023/12/30 03:25:22;;;;;;;6.80;1.20;;;;;;;;;;5092561;28;20561;-54
2023/12/30 03:27:48;;;;;;;5.50;1.13;;;;;;;;;;5093190;28;20597;-54
2023/12/30 03:30:14;;;;;;;9.40;1.47;;;;;;;;;;5092453;28;20270;-55
2023/12/30 03:32:40;;;;;;;2.70;1.17;;;;;;;;;;5090714;28;20172;-55
2023/12/30 03:35:07;;;;;;;6.27;1.57;;;;;;;;;;5091462;28;20176;-53
2023/12/30 03:37:33;;;;;;;6.40;1.20;;;;;;;;;;5090742;28;20210;-52
2023/12/30 03:39:59;;;;;;;7.53;0.90;;;;;;;;;;5090493;28;20178;-53
2023/12/30 03:42:27;;;;;;;3.17;1.00;;;;;;;;;;5090347;28;20180;-55
2023/12/30 03:44:53;;;;;;;3.53;1.20;;;;;;;;;;5091265;28;20188;-53
2023/12/30 03:47:19;;;;;;;4.30;0.90;;;;;;;;;;5091374;28;20172;-54
2023/12/30 03:49:45;;;;;;;8.80;1.43;;;;;;;;;;5091590;28;20182;-53
2023/12/30 03:52:11;;;;;;;6.57;1.90;;;;;;;;;;5091145;28;20176;-55
2023/12/30 03:54:37;;;;;;;2.93;0.90;;;;;;;;;;5091705;28;20241;-53
2023/12/30 03:57:03;;;;;;;5.13;1.10;;;;;;;;;;5090068;28;20236;-51
2023/12/30 03:59:29;;;;;;;8.43;1.67;;;;;;;;;;5092203;28;20165;-55
2023/12/30 04:01:55;;;;;;;4.57;0.90;;;;;;;;;;5091691;28;20164;-53
2023/12/30 04:04:21;;;;;;;3.87;0.90;;;;;;;;;;5091184;28;20557;-55
2023/12/30 04:06:48;;;;;;;4.47;1.20;;;;;;;;;;5091967;28;20237;-55
2023/12/30 04:09:14;;;;;;;5.40;1.10;;;;;;;;;;5083867;28;20264;-52
2023/12/30 04:11:39;;;;;;;8.00;1.40;;;;;;;;;;5078203;28;20280;-55
2023/12/30 04:14:05;;;;;;;6.40;1.50;;;;;;;;;;5077987;28;20329;-52
2023/12/30 04:16:31;;;;;;;5.50;1.80;;;;;;;;;;5077783;28;20203;-55
2023/12/30 04:18:57;;;;;;;6.47;1.10;;;;;;;;;;5077558;28;20169;-54
2023/12/30 04:21:24;;;;;;;2.70;0.97;;;;;;;;;;5078073;28;20198;-55
2023/12/30 04:23:50;;;;;;;9.30;2.03;;;;;;;;;;5077105;28;20184;-50
2023/12/30 04:26:16;;;;;;;4.40;1.17;;;;;;;;;;5077648;28;20228;-53
2023/12/30 04:28:42;;;;;;;5.17;1.87;;;;;;;;;;5077213;28;20695;-50
2023/12/30 04:31:08;;;;;;;8.57;1.70;;;;;;;;;;5077414;28;20165;-56
2023/12/30 04:33:34;;;;;;;7.57;1.40;;;;;;;;;;5077912;28;20201;-55
2023/12/30 04:36:00;;;;;;;8.90;1.67;;;;;;;;;;5078362;28;20173;-51
2023/12/30 04:38:26;;;;;;;6.17;1.30;;;;;;;;;;5077505;28;20578;-50
2023/12/30 04:40:52;;;;;;;2.50;1.20;;;;;;;;;;5077481;28;20255;-51
2023/12/30 04:43:18;;;;;;;15.13;1.77;;;;;;;;;;5077294;28;20285;-55
2023/12/30 04:45:44;;;;;;;10.13;1.50;;;;;;;;;;5076868;28;20215;-51
2023/12/30 04:48:10;;;;;;;6.57;1.67;;;;;;;;;;5077877;28;20169;-53
2023/12/30 04:50:36;;;;;;;5.73;2.00;;;;;;;;;;5077125;28;20208;-54
2023/12/30 04:53:01;;;;;;;9.97;1.63;;;;;;;;;;5076704;28;20195;-55
2023/12/30 04:55:27;;;;;;;9.90;1.97;;;;;;;;;;5076962;28;20271;-56
2023/12/30 04:57:53;;;;;;;10.60;1.60;;;;;;;;;;5075929;28;20236;-55
2023/12/30 05:00:20;;;;;;;8.97;1.60;;;;;;;;;;5076901;28;20729;-53
2023/12/30 05:02:46;;;;;;;7.30;1.70;;;;;;;;;;5077468;28;20537;-56
2023/12/30 05:05:12;;;;;;;6.40;1.93;;;;;;;;;;5076754;28;20185;-54
2023/12/30 05:07:38;;;;;;;8.00;1.17;;;;;;;;;;5077729;28;20272;-55
2023/12/30 05:10:04;;;;;;;6.27;1.80;;;;;;;;;;5077379;28;20176;-54
2023/12/30 05:12:30;;;;;;;4.73;1.90;;;;;;;;;;5076872;28;20207;-52
2023/12/30 05:14:56;;;;;;;2.87;1.30;;;;;;;;;;5075950;28;20177;-51
2023/12/30 05:17:22;;;;;;;11.23;1.57;;;;;;;;;;5076469;28;20286;-54
2023/12/30 05:19:48;;;;;;;10.20;1.60;;;;;;;;;;5075112;28;20694;-54
2023/12/30 05:22:14;;;;;;;7.90;1.47;;;;;;;;;;5076282;28;20168;-50
2023/12/30 05:24:40;;;;;;;6.17;1.67;;;;;;;;;;5076420;28;20203;-55
2023/12/30 05:27:06;;;;;;;14.77;2.07;;;;;;;;;;5076742;28;20180;-56
2023/12/30 05:29:33;;;;;;;7.10;1.57;;;;;;;;;;5076472;28;20177;-55
2023/12/30 05:31:59;;;;;;;9.60;1.97;;;;;;;;;;5076279;28;20276;-53
2023/12/30 05:34:25;;;;;;;7.67;1.83;;;;;;;;;;5076566;28;20187;-52
2023/12/30 05:36:51;;;;;;;4.60;1.53;;;;;;;;;;5077206;28;20193;-53
2023/12/30 05:39:17;;;;;;;8.03;2.17;;;;;;;;;;5077081;28;20189;-54
2023/12/30 05:41:43;;;;;;;8.23;2.10;;;;;;;;;;5075771;28;20173;-52
2023/12/30 05:44:09;;;;;;;6.43;1.20;;;;;;;;;;5076360;28;20544;-55
2023/12/30 05:46:35;;;;;;;11.17;1.87;;;;;;;;;;5075740;28;20173;-52
2023/12/30 05:49:01;;;;;;;7.20;1.63;;;;;;;;;;5076009;28;20177;-50
2023/12/30 05:51:26;;;;;;;5.73;1.63;;;;;;;;;;5075745;28;20549;-53
2023/12/30 05:53:52;;;;;;;10.00;1.90;;;;;;;;;;5075109;28;20786;-51
2023/12/30 05:56:23;;;;;;;8.20;2.07;;;;;;;;;;5074871;28;20472;-53
2023/12/30 05:58:49;;;;;;;9.50;2.03;;;;;;;;;;5075928;28;20173;-53
2023/12/30 06:01:15;;;;;;;2.83;1.00;;;;;;;;;;5076799;28;20169;-53
2023/12/30 06:03:41;;;;;;;6.43;1.50;;;;;;;;;;5074806;28;20172;-51
2023/12/30 06:06:07;;;;;;;5.87;1.40;;;;;;;;;;5074366;28;20177;-53
2023/12/30 06:08:33;;;;;;;10.90;1.60;;;;;;;;;;5074981;28;20172;-55
2023/12/30 06:10:59;;;;;;;7.13;2.03;;;;;;;;;;5075475;28;20618;-56
2023/12/30 06:13:25;;;;;;;6.03;1.60;;;;;;;;;;5075972;28;20467;-53
2023/12/30 06:15:51;;;;;;;12.17;2.40;;;;;;;;;;5074373;28;20595;-49
2023/12/30 06:18:18;;;;;;;7.77;1.60;;;;;;;;;;5074049;28;20270;-52
2023/12/30 06:20:47;;;;;;;9.07;1.40;;;;;;;;;;5073890;28;20169;-54
2023/12/30 06:23:13;;;;;;;10.53;1.70;;;;;;;;;;5073944;28;20183;-55
2023/12/30 06:25:39;;;;;;;7.77;1.50;;;;;;;;;;5074513;28;20173;-51
2023/12/30 06:28:05;;;;;;;7.13;1.70;;;;;;;;;;5073969;28;20245;-54
2023/12/30 06:30:31;;;;;;;10.53;1.93;;;;;;;;;;5075468;28;20184;-54
2023/12/30 06:32:58;;;;;;;6.77;2.07;;;;;;;;;;5074932;28;20541;-49
2023/12/30 06:35:24;;;;;;;11.97;1.70;;;;;;;;;;5075264;28;20206;-50
2023/12/30 06:37:51;;;;;;;5.40;1.10;;;;;;;;;;5074845;28;20197;-52
2023/12/30 06:40:17;;;;;;;11.00;1.90;;;;;;;;;;5074272;28;20173;-54
2023/12/30 06:42:45;;;;;;;5.20;1.60;;;;;;;;;;5074824;28;20177;-50
2023/12/30 06:45:11;;;;;;;6.53;1.80;;;;;;;;;;5073203;28;20175;-53
2023/12/30 06:47:36;;;;;;;6.90;1.40;;;;;;;;;;5072735;28;20267;-51
2023/12/30 06:50:03;;;;;;;8.60;2.07;;;;;;;;;;5072872;28;20274;-56
2023/12/30 06:52:28;;;;;;;11.70;2.17;;;;;;;;;;5072628;28;20177;-50
2023/12/30 06:54:54;;;;;;;6.17;1.40;;;;;;;;;;5072879;28;20529;-51
2023/12/30 06:57:24;;;;;;;10.80;1.70;;;;;;;;;;5072267;28;20234;-52
2023/12/30 06:59:50;;;;;;;6.23;2.27;;;;;;;;;;5073170;28;20169;-53
2023/12/30 07:02:16;;;;;;;8.83;1.30;;;;;;;;;;5073794;28;20164;-53
2023/12/30 07:04:42;;;;;;;10.50;2.60;;;;;;;;;;5074271;28;20169;-55
2023/12/30 07:07:08;;;;;;;5.57;1.63;;;;;;;;;;5074250;28;20404;-54
2023/12/30 07:09:34;;;;;;;7.97;1.60;;;;;;;;;;5074286;28;20172;-55
2023/12/30 07:12:00;;;;;;;5.33;1.40;;;;;;;;;;5073973;28;20238;-54
2023/12/30 07:14:26;;;;;;;4.70;2.00;;;;;;;;;;5073643;28;20184;-52
2023/12/30 07:16:52;;;;;;;6.30;1.73;;;;;;;;;;5074319;28;20250;-51
2023/12/30 07:19:18;;;;;;;7.70;1.67;;;;;;;;;;5074201;28;20267;-51
2023/12/30 07:21:44;;;;;;;12.20;1.90;;;;;;;;;;5073314;28;20276;-51
2023/12/30 07:24:10;;;;;;;8.77;1.47;;;;;;;;;;5073635;28;20169;-51
2023/12/30 07:26:36;;;;;;;6.20;1.80;;;;;;;;;;5074271;28;20192;-54
2023/12/30 07:29:02;;;;;;;9.43;1.93;;;;;;;;;;5075426;28;20230;-54
2023/12/30 07:31:28;;;;;;;11.43;2.20;;;;;;;;;;5073985;28;20352;-54
2023/12/30 07:33:55;;;;;;;7.60;1.33;;;;;;;;;;5073598;28;20770;-55
2023/12/30 07:36:21;;;;;;;7.30;1.33;;;;;;;;;;5072839;28;20198;-55
2023/12/30 07:38:47;;;;;;;9.07;1.97;;;;;;;;;;5072144;28;20169;-53
2023/12/30 07:41:14;;;;;;;7.37;1.47;;;;;;;;;;5072718;28;20227;-55
2023/12/30 07:43:40;;;;;;;6.03;1.53;;;;;;;;;;5074279;28;20266;-51
2023/12/30 07:46:06;;;;;;;11.50;1.63;;;;;;;;;;5076773;28;20236;-53
2023/12/30 07:48:32;;;;;;;6.73;1.57;;;;;;;;;;5076588;28;20239;-52
2023/12/30 07:50:59;;;;;;;9.60;1.77;;;;;;;;;;5077514;28;20173;-52
2023/12/30 07:53:25;;;;;;;5.30;2.03;;;;;;;;;;5077196;28;20717;-53
2023/12/30 07:55:52;;;;;;;8.60;1.63;;;;;;;;;;5077337;28;20350;-53
2023/12/30 07:58:18;;;;;;;5.03;2.13;;;;;;;;;;5077152;28;20248;-54
2023/12/30 08:00:45;;;;;;;5.67;1.50;;;;;;;;;;5075989;28;20211;-53
2023/12/30 08:03:11;;;;;;;9.30;1.40;;;;;;;;;;5075383;28;20222;-52
2023/12/30 08:05:39;;;;;;;6.77;1.80;;;;;;;;;;5076071;28;20184;-53
2023/12/30 08:08:05;;;;;;;6.43;1.70;;;;;;;;;;5076232;28;20226;-52
2023/12/30 08:10:32;;;;;;;7.83;1.57;;;;;;;;;;5077143;28;20169;-50
2023/12/30 08:12:59;;;;;;;9.70;2.23;;;;;;;;;;5076663;28;20215;-50
2023/12/30 08:15:25;;;;;;;5.50;1.63;;;;;;;;;;5076154;28;20525;-55
2023/12/30 08:17:52;;;;;;;6.23;1.57;;;;;;;;;;5076233;28;20200;-51
2023/12/30 08:20:18;;;;;;;7.60;1.67;;;;;;;;;;5075022;28;20556;-51
2023/12/30 08:22:44;;;;;;;5.80;1.53;;;;;;;;;;5075131;28;20272;-51
2023/12/30 08:25:13;;;;;;;6.97;1.40;;;;;;;;;;5072916;28;20770;-52
2023/12/30 08:27:39;;;;;;;10.23;2.13;;;;;;;;;;5074374;28;20789;-54
2023/12/30 08:30:05;;;;;;;7.80;1.70;;;;;;;;;;5075632;28;20217;-52
2023/12/30 08:32:31;;;;;;;8.83;2.03;;;;;;;;;;5076041;28;20198;-54
2023/12/30 08:34:57;;;;;;;9.53;1.90;;;;;;;;;;5075905;28;20188;-55
2023/12/30 08:37:24;;;;;;;7.57;2.43;;;;;;;;;;5076178;28;20349;-51
2023/12/30 08:39:50;;;;;;;6.17;2.30;;;;;;;;;;5075809;28;20237;-55
2023/12/30 08:42:16;;;;;;;10.77;1.83;;;;;;;;;;5076266;28;20549;-53
2023/12/30 08:44:45;;;;;;;10.80;2.03;;;;;;;;;;5076572;28;20490;-52
2023/12/30 08:47:12;;;;;;;7.17;1.43;;;;;;;;;;5074569;28;20169;-54
2023/12/30 08:49:39;;;;;;;11.03;2.63;;;;;;;;;;5074936;28;20207;-54
2023/12/30 08:52:05;;;;;;;10.23;2.30;;;;;;;;;;5074328;28;20695;-54
2023/12/30 08:54:31;;;;;;;9.13;2.10;;;;;;;;;;5073708;28;20459;-51
2023/12/30 08:56:57;;;;;;;5.40;1.80;;;;;;;;;;5073487;28;20228;-53
2023/12/30 08:59:24;;;;;;;7.00;1.87;;;;;;;;;;5074617;28;20183;-53
2023/12/30 09:01:51;;;;;;;8.67;1.90;;;;;;;;;;5075068;28;20176;-54
2023/12/30 09:04:16;;;;;;;4.90;1.90;;;;;;;;;;5075782;28;20165;-52
2023/12/30 09:06:43;;;;;;;12.90;2.00;;;;;;;;;;5075187;28;20169;-56
2023/12/30 09:09:08;;;;;;;12.43;2.23;;;;;;;;;;5074159;28;20576;-51
2023/12/30 09:11:38;;;;;;;4.90;1.60;;;;;;;;;;5074879;28;20185;-55
2023/12/30 09:14:05;;;;;;;9.80;2.23;;;;;;;;;;5073932;28;20263;-55
2023/12/30 09:16:35;;;;;;;9.43;2.13;;;;;;;;;;5074834;28;20173;-53
2023/12/30 09:19:01;;;;;;;7.10;1.70;;;;;;;;;;5074127;28;20160;-55
2023/12/30 09:21:27;;;;;;;9.93;2.50;;;;;;;;;;5072424;28;20176;-53
2023/12/30 09:23:53;;;;;;;14.33;2.60;;;;;;;;;;5070665;28;20225;-54
2023/12/30 09:26:19;;;;;;;15.10;3.23;;;;;;;;;;5070862;28;20259;-55
2023/12/30 09:28:45;;;;;;;9.63;1.80;;;;;;;;;;5072236;28;20215;-54
2023/12/30 09:31:11;;;;;;;5.67;1.60;;;;;;;;;;5071737;28;20734;-52
2023/12/30 09:33:37;;;;;;;8.17;2.17;;;;;;;;;;5071843;28;20172;-50
2023/12/30 09:36:04;;;;;;;11.83;2.33;;;;;;;;;;5072391;28;20176;-54
2023/12/30 09:38:30;;;;;;;6.37;1.47;;;;;;;;;;5072520;28;20201;-55
2023/12/30 09:40:56;;;;;;;8.07;2.17;;;;;;;;;;5072684;28;20179;-53
2023/12/30 09:43:24;;;;;;;6.20;1.73;;;;;;;;;;5072574;28;20184;-52
2023/12/30 09:45:51;;;;;;;7.10;1.77;;;;;;;;;;5071735;28;20176;-55
2023/12/30 09:48:20;;;;;;;10.93;2.07;;;;;;;;;;5072847;28;20177;-52
2023/12/30 09:50:47;;;;;;;6.30;2.20;;;;;;;;;;5071770;28;20346;-55
2023/12/30 09:53:13;;;;;;;12.60;2.33;;;;;;;;;;5070621;28;20187;-55
2023/12/30 09:55:39;;;;;;;7.17;1.60;;;;;;;;;;5072308;28;20173;-52
2023/12/30 09:58:05;;;;;;;9.37;2.27;;;;;;;;;;5069754;28;20315;-52
2023/12/30 10:00:32;;;;;;;8.03;1.90;;;;;;;;;;5071801;28;20180;-52
2023/12/30 10:02:58;;;;;;;8.27;2.20;;;;;;;;;;5073221;28;20553;-54
2023/12/30 10:05:24;;;;;;;11.27;2.10;;;;;;;;;;5073459;28;20181;-55
2023/12/30 10:07:51;;;;;;;9.23;1.97;;;;;;;;;;5071934;28;20173;-54
2023/12/30 10:10:33;;;;;;;6.10;2.40;;;;;;;;;;5073486;28;20175;-54
2023/12/30 10:13:00;;;;;;;7.90;1.80;;;;;;;;;;5072052;28;20185;-54
2023/12/30 10:15:26;;;;;;;6.80;1.90;;;;;;;;;;5073227;28;20229;-54
2023/12/30 10:17:52;;;;;;;8.40;1.57;;;;;;;;;;5072926;28;20205;-50
2023/12/30 10:20:23;;;;;;;10.90;2.60;;;;;;;;;;5073480;28;20544;-53
2023/12/30 10:22:49;;;;;;;7.83;1.70;;;;;;;;;;5073008;28;20267;-53
2023/12/30 10:25:15;;;;;;;9.23;1.63;;;;;;;;;;5072702;28;20298;-53
2023/12/30 10:27:41;;;;;;;7.03;2.60;;;;;;;;;;5072862;28;20181;-55
2023/12/30 10:30:09;;;;;;;7.10;2.40;;;;;;;;;;5071508;28;20185;-53
2023/12/30 10:32:37;;;;;;;6.77;1.97;;;;;;;;;;5071553;28;20247;-52
2023/12/30 10:35:03;;;;;;;7.07;1.63;;;;;;;;;;5070442;28;20176;-55
2023/12/30 10:37:30;;;;;;;6.73;1.77;;;;;;;;;;5069567;28;20208;-50
2023/12/30 10:39:58;;;;;;;10.40;1.90;;;;;;;;;;5070047;28;20173;-55
2023/12/30 10:42:24;;;;;;;6.00;2.17;;;;;;;;;;5068414;28;20581;-52
2023/12/30 10:44:50;;;;;;;9.27;1.67;;;;;;;;;;5069053;28;20165;-53
2023/12/30 10:47:19;;;;;;;10.13;2.47;;;;;;;;;;5070526;28;20169;-50
2023/12/30 10:49:48;;;;;;;6.70;1.80;;;;;;;;;;5070029;28;20172;-52
2023/12/30 10:52:15;;;;;;;7.73;2.10;;;;;;;;;;5071018;28;20263;-53
2023/12/30 10:54:47;;;;;;;9.20;2.23;;;;;;;;;;5071003;28;20572;-50
2023/12/30 10:57:16;;;;;;;7.07;2.10;;;;;;;;;;5070795;28;20240;-50
2023/12/30 10:59:43;;;;;;;9.77;2.10;;;;;;;;;;5069756;28;20236;-53
2023/12/30 11:02:11;;;;;;;5.47;1.63;;;;;;;;;;5070691;28;20425;-52
2023/12/30 11:04:37;;;;;;;10.93;2.10;;;;;;;;;;5071140;28;20255;-55
2023/12/30 11:07:06;;;;;;;8.30;2.73;;;;;;;;;;5064392;28;20184;-51
2023/12/30 11:09:33;;;;;;;6.10;1.80;;;;;;;;;;5062795;28;20176;-53
2023/12/30 11:12:02;;;;;;;8.37;2.20;;;;;;;;;;5064784;28;20172;-53
2023/12/30 11:14:29;;;;;;;6.73;1.60;;;;;;;;;;5066822;28;20177;-53
2023/12/30 11:16:57;;;;;;;2.93;1.47;;;;;;;;;;5072681;28;20608;-56
2023/12/30 11:19:27;;;;;;;3.63;1.20;;;;;;;;;;5073631;28;20176;-52
2023/12/30 11:21:54;;;;;;;2.73;1.03;;;;;;;;;;5076327;28;20173;-54
2023/12/30 11:24:20;;;;;;;3.73;1.00;;;;;;;;;;5076964;28;20211;-51
2023/12/30 11:26:47;;;;;;;3.53;0.87;;;;;;;;;;5076561;28;20184;-53
2023/12/30 11:29:34;;;;;;;3.30;0.90;;;;;;;;;;5075551;28;20271;-55
2023/12/30 11:32:00;;;;;;;2.40;1.03;;;;;;;;;;5075871;28;20185;-54
2023/12/30 11:34:27;;;;;;;4.50;1.20;;;;;;;;;;5075446;28;20234;-53
2023/12/30 11:36:53;;;;;;;2.40;1.00;;;;;;;;;;5074157;28;20196;-54
2023/12/30 11:39:31;;;;;;;5.03;1.20;;;;;;;;;;5075172;28;20169;-54
2023/12/30 11:41:57;;;;;;;2.80;1.30;;;;;;;;;;5074037;28;20172;-51
2023/12/30 11:44:23;;;;;;;6.97;2.87;;;;;;;;;;5072877;28;20293;-53
2023/12/30 11:46:50;;;;;;;5.10;1.37;;;;;;;;;;5071701;28;20177;-53
2023/12/30 11:49:19;;;;;;;2.97;1.47;;;;;;;;;;5073754;28;20704;-52
2023/12/30 11:51:46;;;;;;;6.47;2.30;;;;;;;;;;5074142;28;20169;-54
2023/12/30 11:54:12;;;;;;;12.17;1.90;;;;;;;;;;5074312;28;20207;-50
2023/12/30 11:56:38;;;;;;;3.97;1.60;;;;;;;;;;5068083;28;20250;-52
2023/12/30 11:59:07;;;;;;;10.33;2.23;;;;;;;;;;5071726;28;20176;-53
2023/12/30 12:01:33;;;;;;;9.97;1.70;;;;;;;;;;5072149;28;20267;-49
2023/12/30 12:03:59;;;;;;;5.37;1.33;;;;;;;;;;5073060;28;20279;-55
2023/12/30 12:06:25;;;;;;;5.40;1.90;;;;;;;;;;5068803;28;20204;-52
2023/12/30 12:08:51;;;;;;;5.07;1.90;;;;;;;;;;5073307;28;20275;-55
2023/12/30 12:11:18;;;;;;;5.93;1.77;;;;;;;;;;5071122;28;20179;-50
2023/12/30 12:13:45;;;;;;;8.83;1.83;;;;;;;;;;5071305;28;20223;-52
2023/12/30 12:16:11;;;;;;;6.50;1.60;;;;;;;;;;5072653;28;20694;-55
2023/12/30 12:18:37;;;;;;;6.57;1.80;;;;;;;;;;5070947;28;20243;-54
2023/12/30 12:21:12;;;;;;;5.77;1.47;;;;;;;;;;5070758;28;20845;-55
2023/12/30 12:23:41;;;;;;;6.97;1.93;;;;;;;;;;5071508;28;20168;-55
2023/12/30 12:26:07;;;;;;;6.67;2.20;;;;;;;;;;5071175;28;20272;-54
2023/12/30 12:28:34;;;;;;;9.00;1.70;;;;;;;;;;5071836;28;20519;-53
2023/12/30 12:31:06;;;;;;;3.37;1.57;;;;;;;;;;5069023;28;20241;-53
2023/12/30 12:33:34;;;;;;;8.53;1.77;;;;;;;;;;5069446;28;20181;-53
2023/12/30 12:36:02;;;;;;;5.73;2.13;;;;;;;;;;5069900;28;20234;-54
2023/12/30 12:38:29;;;;;;;6.83;1.90;;;;;;;;;;5070051;28;20707;-51
2023/12/30 12:40:56;;;;;;;7.03;1.60;;;;;;;;;;5070914;28;20174;-50
2023/12/30 12:43:22;;;;;;;5.80;2.10;;;;;;;;;;5072241;28;20175;-55
2023/12/30 12:45:48;;;;;;;8.07;1.83;;;;;;;;;;5072926;28;20165;-53
2023/12/30 12:48:15;;;;;;;5.43;1.80;;;;;;;;;;5072647;28;20185;-50
2023/12/30 12:50:41;;;;;;;10.83;2.20;;;;;;;;;;5072963;28;20260;-50
2023/12/30 12:53:09;;;;;;;16.53;2.10;;;;;;;;;;5071331;28;20172;-53
2023/12/30 12:55:36;;;;;;;10.80;1.90;;;;;;;;;;5071909;28;20554;-54
2023/12/30 12:58:02;;;;;;;9.13;2.27;;;;;;;;;;5069402;28;20239;-53
2023/12/30 13:00:29;;;;;;;7.90;1.73;;;;;;;;;;5070052;28;20196;-53
2023/12/30 13:02:56;;;;;;;7.20;1.67;;;;;;;;;;5071132;28;20176;-52
2023/12/30 13:05:23;;;;;;;9.33;3.23;;;;;;;;;;5070121;28;20172;-55
2023/12/30 13:07:49;;;;;;;8.97;2.33;;;;;;;;;;5071310;28;20210;-55
2023/12/30 13:12:57;;;;;;;9.07;1.83;;;;;;;;;;5069443;28;20169;-54
2023/12/30 13:15:24;;;;;;;6.27;2.30;;;;;;;;;;5069723;28;20176;-53
2023/12/30 13:17:53;;;;;;;7.33;1.90;;;;;;;;;;5070679;28;20220;-55
2023/12/30 13:20:19;;;;;;;11.47;2.93;;;;;;;;;;5069367;28;20189;-52
2023/12/30 13:22:45;;;;;;;8.60;1.50;;;;;;;;;;5067967;28;20242;-53
2023/12/30 13:25:13;;;;;;;12.57;2.07;;;;;;;;;;5068791;28;20175;-53
2023/12/30 13:27:42;;;;;;;6.80;2.13;;;;;;;;;;5068971;28;20558;-54
2023/12/30 13:30:09;;;;;;;7.97;2.17;;;;;;;;;;5069803;28;20239;-51
2023/12/30 13:32:35;;;;;;;22.57;2.73;;;;;;;;;;5069756;28;20176;-53
2023/12/30 13:35:02;;;;;;;9.13;2.37;;;;;;;;;;5068790;28;20279;-51
2023/12/30 13:37:28;;;;;;;7.87;2.43;;;;;;;;;;5068744;28;20204;-53
2023/12/30 13:39:58;;;;;;;9.23;2.23;;;;;;;;;;5068733;28;20169;-55
2023/12/30 13:42:25;;;;;;;9.00;2.10;;;;;;;;;;5067191;28;20211;-53
2023/12/30 13:44:51;;;;;;;8.10;1.70;;;;;;;;;;5068796;28;20168;-56
2023/12/30 13:50:19;;;;;;;9.63;2.33;;;;;;;;;;5069900;28;20581;-53
2023/12/30 13:52:47;;;;;;;6.17;1.60;;;;;;;;;;5069806;28;20169;-55
2023/12/30 13:55:15;;;;;;;11.57;1.97;;;;;;;;;;5070081;28;20168;-53
2023/12/30 13:57:42;;;;;;;3.43;1.30;;;;;;;;;;5068910;28;20392;-52
2023/12/30 14:00:08;;;;;;;8.57;1.77;;;;;;;;;;5068426;28;20171;-53
2023/12/30 14:02:38;;;;;;;5.60;1.50;;;;;;;;;;5069678;28;20165;-52
2023/12/30 14:05:13;;;;;;;10.77;2.13;;;;;;;;;;5068281;28;20583;-51
2023/12/30 14:07:39;;;;;;;5.00;2.03;;;;;;;;;;5069467;28;20707;-55
2023/12/30 14:10:06;;;;;;;7.77;2.00;;;;;;;;;;5061801;28;20352;-53
2023/12/30 14:12:34;;;;;;;8.50;2.07;;;;;;;;;;5064781;28;20164;-52
2023/12/30 14:15:06;;;;;;;6.07;1.77;;;;;;;;;;5062010;28;20172;-54
2023/12/30 14:17:34;;;;;;;7.70;2.43;;;;;;;;;;5068991;28;20232;-53
2023/12/30 14:20:04;;;;;;;5.50;1.53;;;;;;;;;;5067999;28;20173;-51
2023/12/30 14:22:33;;;;;;;9.37;1.80;;;;;;;;;;5067774;28;20199;-51
2023/12/30 14:25:06;;;;;;;8.17;2.40;;;;;;;;;;5067331;28;20161;-54
2023/12/30 14:27:33;;;;;;;7.83;2.20;;;;;;;;;;5066221;28;20246;-53
2023/12/30 14:30:01;;;;;;;5.43;1.63;;;;;;;;;;5068210;28;20165;-51
2023/12/30 14:32:27;;;;;;;11.30;3.13;;;;;;;;;;5067000;28;20187;-52
2023/12/30 14:34:53;;;;;;;4.63;1.37;;;;;;;;;;5067704;28;20177;-55
2023/12/30 14:37:20;;;;;;;9.07;1.83;;;;;;;;;;5069177;28;20257;-55
2023/12/30 14:39:46;;;;;;;6.60;1.90;;;;;;;;;;5067860;28;20169;-55
2023/12/30 14:42:13;;;;;;;8.43;2.00;;;;;;;;;;5069199;28;20176;-52
2023/12/30 14:44:39;;;;;;;8.70;1.97;;;;;;;;;;5069290;28;20168;-51